Time;durP1;ratioP1;P1;durP2;ratioP2;P2;SDS_P1;SDS_P2;PMS_P1;PMS_P2;Temp;Humidity;BMP_temperature;BMP_pressure;BME280_temperature;BME280_humidity;BME280_pressure;Samples;Min_cycle;Max_cycle;Signal;HPM_P1;HPM_P2
2023/04/30 00:00:01;;;;;;;12.93;8.50;;;7.30;1.00;;;;;;4972426;28;20701;-63
2023/04/30 00:02:36;;;;;;;10.10;7.87;;;7.30;1.00;;;;;;4972363;28;20595;-62
2023/04/30 00:05:03;;;;;;;11.37;8.73;;;7.10;1.00;;;;;;4971341;28;20244;-63
2023/04/30 00:07:31;;;;;;;14.17;8.63;;;7.20;1.00;;;;;;4964197;28;20248;-63
2023/04/30 00:09:58;;;;;;;12.97;9.03;;;7.20;1.00;;;;;;4959671;28;20289;-64
2023/04/30 00:12:25;;;;;;;11.00;8.73;;;7.10;1.00;;;;;;4962740;28;20202;-63
2023/04/30 00:14:52;;;;;;;11.87;8.73;;;7.10;1.00;;;;;;4972672;28;20226;-63
2023/04/30 00:17:19;;;;;;;12.60;9.50;;;7.10;1.00;;;;;;4972372;28;20294;-63
2023/04/30 00:19:46;;;;;;;11.73;8.80;;;7.00;1.00;;;;;;4971347;28;20190;-62
2023/04/30 00:22:13;;;;;;;15.10;10.03;;;7.00;1.00;;;;;;4972363;28;20577;-63
2023/04/30 00:24:40;;;;;;;12.03;9.30;;;7.00;1.00;;;;;;4971112;28;20245;-66
2023/04/30 00:27:07;;;;;;;13.57;9.07;;;7.00;1.00;;;;;;4972023;28;20720;-62
2023/04/30 00:29:34;;;;;;;15.60;9.70;;;6.90;1.00;;;;;;4972157;28;20197;-63
2023/04/30 00:32:02;;;;;;;11.50;8.83;;;7.00;1.00;;;;;;4970866;28;20225;-63
2023/04/30 00:34:29;;;;;;;11.40;8.70;;;6.90;1.00;;;;;;4971827;28;20205;-62
2023/04/30 00:36:56;;;;;;;11.80;8.40;;;6.90;1.00;;;;;;4962881;28;20202;-62
2023/04/30 00:39:22;;;;;;;9.17;7.90;;;6.80;1.00;;;;;;4972134;28;20277;-62
2023/04/30 00:41:49;;;;;;;11.03;7.87;;;6.90;1.00;;;;;;4959775;28;20740;-63
2023/04/30 00:44:16;;;;;;;10.93;8.07;;;6.80;1.00;;;;;;4970876;28;20216;-63
2023/04/30 00:46:43;;;;;;;10.20;8.17;;;6.80;1.00;;;;;;4960540;28;20569;-62
2023/04/30 00:49:10;;;;;;;10.23;8.07;;;6.80;1.00;;;;;;4970050;28;20549;-63
2023/04/30 00:51:40;;;;;;;10.20;8.23;;;6.80;1.00;;;;;;4972035;28;20256;-62
2023/04/30 00:54:08;;;;;;;12.27;7.80;;;6.70;1.00;;;;;;4970733;28;20195;-63
2023/04/30 00:56:35;;;;;;;11.17;8.40;;;6.70;1.00;;;;;;4960397;28;20614;-64
2023/04/30 00:59:02;;;;;;;10.30;8.23;;;6.60;1.00;;;;;;4970386;28;20198;-63
2023/04/30 01:01:30;;;;;;;10.37;8.50;;;6.60;1.00;;;;;;4954855;28;20206;-63
2023/04/30 01:03:58;;;;;;;12.13;8.83;;;6.50;1.00;;;;;;4970907;28;20285;-62
2023/04/30 01:06:25;;;;;;;11.50;8.90;;;6.50;1.00;;;;;;4982975;28;20220;-62
2023/04/30 01:08:53;;;;;;;11.53;8.50;;;6.50;1.00;;;;;;4960311;28;20269;-68
2023/04/30 01:11:44;;;;;;;11.37;8.90;;;6.40;1.00;;;;;;4970282;28;20198;-62
2023/04/30 01:14:24;;;;;;;11.17;9.30;;;6.40;1.00;;;;;;4963406;28;20210;-63
2023/04/30 01:17:04;;;;;;;13.03;10.83;;;6.30;1.00;;;;;;4960107;28;20232;-61
2023/04/30 01:19:41;;;;;;;15.53;9.97;;;6.20;1.00;;;;;;4970759;28;20194;-63
2023/04/30 01:22:19;;;;;;;13.17;10.00;;;6.20;1.00;;;;;;4970093;28;20732;-62
2023/04/30 01:25:06;;;;;;;12.97;9.77;;;6.20;1.00;;;;;;4971669;28;20224;-62
2023/04/30 01:27:45;;;;;;;15.60;10.70;;;6.30;1.00;;;;;;4962497;28;20211;-62
2023/04/30 01:30:14;;;;;;;13.60;10.13;;;6.20;1.00;;;;;;4946332;28;20216;-63
2023/04/30 01:32:41;;;;;;;17.17;9.77;;;6.20;1.00;;;;;;4968468;28;20198;-63
2023/04/30 01:35:08;;;;;;;12.13;9.57;;;6.10;1.00;;;;;;4960681;28;20628;-63
2023/04/30 01:38:02;;;;;;;14.53;10.47;;;6.10;1.00;;;;;;4955492;28;20690;-75
2023/04/30 01:40:57;;;;;;;13.50;9.23;;;6.10;1.00;;;;;;4969842;28;20210;-63
2023/04/30 01:43:56;;;;;;;12.37;10.23;;;6.10;1.00;;;;;;4969708;28;20317;-62
2023/04/30 01:46:30;;;;;;;12.67;9.93;;;6.10;1.00;;;;;;4970655;28;20217;-62
2023/04/30 01:49:03;;;;;;;13.80;10.70;;;6.20;1.00;;;;;;4970403;28;20194;-62
2023/04/30 01:52:00;;;;;;;13.93;10.30;;;6.10;1.00;;;;;;4969297;28;20300;-63
2023/04/30 01:54:46;;;;;;;16.67;10.77;;;6.10;1.00;;;;;;4953675;28;20252;-63
2023/04/30 01:57:38;;;;;;;14.23;9.97;;;6.10;1.00;;;;;;4964112;28;20273;-63
2023/04/30 02:00:10;;;;;;;14.63;10.37;;;6.10;1.00;;;;;;4950735;28;20233;-63
2023/04/30 02:02:40;;;;;;;16.77;11.20;;;6.00;1.00;;;;;;4951476;28;20228;-63
2023/04/30 02:05:08;;;;;;;15.13;10.00;;;6.00;1.00;;;;;;4962431;28;20320;-64
2023/04/30 02:07:45;;;;;;;13.37;9.70;;;6.00;1.00;;;;;;4951616;28;20202;-62
2023/04/30 02:10:13;;;;;;;16.40;10.87;;;6.00;1.00;;;;;;4947984;28;20196;-62
2023/04/30 02:12:40;;;;;;;15.40;10.23;;;5.90;1.00;;;;;;4968191;28;20667;-61
2023/04/30 02:15:08;;;;;;;14.13;9.83;;;5.90;1.00;;;;;;4964451;28;20261;-62
2023/04/30 02:17:36;;;;;;;11.73;9.90;;;5.90;1.00;;;;;;4943281;28;20607;-62
2023/04/30 02:20:03;;;;;;;11.20;9.80;;;5.80;1.00;;;;;;4949873;28;20700;-62
2023/04/30 02:22:30;;;;;;;12.87;9.87;;;5.80;1.00;;;;;;4968489;28;20433;-61
2023/04/30 02:24:57;;;;;;;15.60;9.63;;;5.80;1.00;;;;;;4953102;28;20226;-60
2023/04/30 02:27:25;;;;;;;14.00;10.50;;;5.80;1.00;;;;;;4952340;28;20285;-60
2023/04/30 02:29:53;;;;;;;12.43;10.37;;;5.70;1.00;;;;;;4970110;28;20244;-60
2023/04/30 02:32:20;;;;;;;14.93;10.57;;;5.70;1.00;;;;;;4952588;28;20212;-60
2023/04/30 02:34:48;;;;;;;13.43;10.87;;;5.70;1.00;;;;;;4970712;28;20249;-60
2023/04/30 02:37:15;;;;;;;12.80;10.57;;;5.70;1.00;;;;;;4953462;28;20209;-62
2023/04/30 02:39:42;;;;;;;12.33;9.83;;;5.70;1.00;;;;;;4941867;28;20195;-60
2023/04/30 02:42:09;;;;;;;13.40;10.67;;;5.60;1.00;;;;;;4970106;28;20221;-60
2023/04/30 02:44:36;;;;;;;13.13;11.37;;;5.60;1.00;;;;;;4969484;28;20198;-60
2023/04/30 02:47:03;;;;;;;14.37;10.27;;;5.60;1.00;;;;;;4952751;28;20201;-60
2023/04/30 02:49:31;;;;;;;13.63;10.70;;;5.50;1.00;;;;;;4969386;28;20248;-60
2023/04/30 02:51:58;;;;;;;13.60;10.70;;;5.60;1.00;;;;;;4952866;28;20210;-60
2023/04/30 02:54:25;;;;;;;16.03;11.03;;;5.50;1.00;;;;;;4952650;28;20217;-61
2023/04/30 02:56:52;;;;;;;16.43;12.63;;;5.60;1.00;;;;;;4953267;28;20202;-60
2023/04/30 02:59:19;;;;;;;20.40;12.97;;;5.60;1.00;;;;;;4973856;28;20281;-60
2023/04/30 03:01:46;;;;;;;15.87;11.17;;;5.70;1.00;;;;;;4956614;28;20198;-61
2023/04/30 03:04:13;;;;;;;16.10;10.97;;;5.60;1.00;;;;;;4940401;28;20733;-62
2023/04/30 03:06:40;;;;;;;14.43;11.33;;;5.60;1.00;;;;;;4973620;28;20547;-64
2023/04/30 03:09:07;;;;;;;16.07;12.10;;;5.50;1.00;;;;;;4963072;28;20198;-63
2023/04/30 03:11:36;;;;;;;15.43;12.13;;;5.50;1.00;;;;;;4973736;28;20211;-61
2023/04/30 03:14:03;;;;;;;18.23;12.93;;;5.40;1.00;;;;;;4940687;28;20674;-60
2023/04/30 03:16:31;;;;;;;19.17;15.00;;;5.30;1.00;;;;;;4946533;28;20202;-60
2023/04/30 03:18:58;;;;;;;14.10;12.43;;;5.30;1.00;;;;;;4952194;28;20310;-60
2023/04/30 03:21:25;;;;;;;22.10;13.83;;;5.30;1.00;;;;;;4955432;28;20714;-60
2023/04/30 03:23:52;;;;;;;20.03;14.40;;;5.20;1.00;;;;;;4954476;28;20218;-60
2023/04/30 03:26:20;;;;;;;18.70;14.00;;;5.30;1.00;;;;;;4974303;28;20186;-60
2023/04/30 03:28:47;;;;;;;20.50;13.37;;;5.20;1.00;;;;;;4973483;28;20241;-61
2023/04/30 03:31:14;;;;;;;18.43;14.27;;;5.20;1.00;;;;;;4956336;28;20206;-60
2023/04/30 03:33:41;;;;;;;18.83;13.63;;;5.20;1.00;;;;;;4973350;28;20209;-69
2023/04/30 03:36:08;;;;;;;17.03;14.77;;;5.20;1.00;;;;;;4968944;28;20198;-60
2023/04/30 03:38:35;;;;;;;18.70;15.47;;;5.10;1.00;;;;;;4962575;28;20218;-61
2023/04/30 03:41:02;;;;;;;16.73;13.50;;;5.10;1.00;;;;;;4957686;28;20190;-61
2023/04/30 03:43:30;;;;;;;18.00;14.03;;;5.10;1.00;;;;;;4972000;28;20292;-63
2023/04/30 03:45:57;;;;;;;16.60;13.43;;;5.10;1.00;;;;;;4959381;28;20703;-61
2023/04/30 03:48:24;;;;;;;15.43;12.93;;;5.10;1.00;;;;;;4973188;28;20883;-68
2023/04/30 03:50:52;;;;;;;17.10;12.53;;;5.10;1.00;;;;;;4971845;28;20716;-60
2023/04/30 03:53:19;;;;;;;15.77;13.40;;;5.10;1.00;;;;;;4955196;28;20683;-60
2023/04/30 03:55:46;;;;;;;14.87;12.07;;;5.10;1.00;;;;;;4971407;28;20186;-60
2023/04/30 03:58:14;;;;;;;18.60;12.80;;;5.20;1.00;;;;;;4962972;28;20702;-60
2023/04/30 04:00:41;;;;;;;17.27;13.43;;;5.30;1.00;;;;;;4971607;28;20210;-60
2023/04/30 04:03:08;;;;;;;20.87;13.90;;;5.40;1.00;;;;;;4962426;28;20222;-60
2023/04/30 04:05:35;;;;;;;16.57;12.77;;;5.50;1.00;;;;;;4971815;28;20231;-65
2023/04/30 04:08:02;;;;;;;19.47;13.00;;;5.40;1.00;;;;;;4968568;28;20439;-61
2023/04/30 04:10:29;;;;;;;17.13;13.20;;;5.40;1.00;;;;;;4952935;28;20198;-61
2023/04/30 04:12:56;;;;;;;15.77;13.43;;;5.40;1.00;;;;;;4951511;28;20217;-61
2023/04/30 04:15:23;;;;;;;17.67;12.83;;;5.40;1.00;;;;;;4969183;28;20198;-61
2023/04/30 04:17:50;;;;;;;22.70;13.27;;;5.40;1.00;;;;;;4954237;28;20225;-60
2023/04/30 04:20:18;;;;;;;20.57;12.10;;;5.40;1.00;;;;;;4965369;28;20716;-60
2023/04/30 04:22:45;;;;;;;19.00;12.13;;;5.50;1.00;;;;;;4938542;28;20222;-62
2023/04/30 04:25:12;;;;;;;15.77;11.20;;;5.50;1.00;;;;;;4964649;28;20198;-60
2023/04/30 04:27:41;;;;;;;14.83;11.33;;;5.50;1.00;;;;;;4963153;28;20265;-61
2023/04/30 04:30:08;;;;;;;18.23;11.27;;;5.70;1.00;;;;;;4972578;28;20197;-70
2023/04/30 04:32:45;;;;;;;21.23;11.13;;;5.80;1.00;;;;;;4970345;28;20253;-61
2023/04/30 04:35:13;;;;;;;13.17;10.30;;;5.90;1.00;;;;;;4955520;28;20230;-60
2023/04/30 04:37:41;;;;;;;12.73;8.93;;;6.30;1.00;;;;;;4964804;28;20209;-60
2023/04/30 04:40:10;;;;;;;12.83;8.73;;;6.80;1.00;;;;;;4971963;28;20198;-61
2023/04/30 04:42:37;;;;;;;11.73;8.63;;;7.20;1.00;;;;;;4948509;28;20188;-60
2023/04/30 04:45:08;;;;;;;9.53;7.50;;;7.60;1.00;;;;;;4951664;28;20237;-61
2023/04/30 04:47:36;;;;;;;10.83;7.07;;;7.90;1.00;;;;;;4942207;28;20225;-60
2023/04/30 04:50:04;;;;;;;9.13;6.37;;;8.20;1.00;;;;;;4951143;28;20198;-60
2023/04/30 04:52:31;;;;;;;9.63;6.03;;;8.20;1.00;;;;;;4966817;28;20273;-62
2023/04/30 04:54:58;;;;;;;7.80;5.93;;;8.10;1.00;;;;;;4951239;29;20761;-62
2023/04/30 04:57:25;;;;;;;9.33;6.40;;;8.00;1.00;;;;;;4941522;28;20206;-62
2023/04/30 04:59:52;;;;;;;12.33;6.50;;;7.70;1.00;;;;;;4971825;28;20589;-63
2023/04/30 05:02:22;;;;;;;10.37;7.23;;;7.60;1.00;;;;;;4965463;28;20285;-62
2023/04/30 05:04:50;;;;;;;11.47;7.80;;;7.40;1.00;;;;;;4953564;28;20571;-62
2023/04/30 05:07:18;;;;;;;10.27;7.03;;;7.20;1.00;;;;;;4965499;28;20190;-62
2023/04/30 05:09:46;;;;;;;11.13;7.57;;;7.10;1.00;;;;;;4937587;28;20190;-62
2023/04/30 05:12:13;;;;;;;11.77;6.93;;;7.00;1.00;;;;;;4939460;28;20198;-63
2023/04/30 05:14:41;;;;;;;10.90;7.83;;;7.10;1.00;;;;;;4958649;28;20202;-62
2023/04/30 05:17:08;;;;;;;11.00;7.83;;;7.10;1.00;;;;;;4970367;28;20202;-62
2023/04/30 05:19:38;;;;;;;12.60;9.03;;;6.80;1.00;;;;;;4969322;28;20264;-74
2023/04/30 05:22:05;;;;;;;13.57;9.63;;;6.70;1.00;;;;;;4970574;28;20194;-62
2023/04/30 05:24:33;;;;;;;12.23;8.33;;;7.70;1.00;;;;;;4953201;28;20261;-63
2023/04/30 05:27:03;;;;;;;8.80;7.13;;;9.00;1.00;;;;;;4971246;28;20249;-63
2023/04/30 05:29:30;;;;;;;11.43;7.00;;;10.00;1.00;;;;;;4970899;28;20195;-63
2023/04/30 05:31:57;;;;;;;8.77;6.70;;;10.70;1.00;;;;;;4970383;28;20217;-61
2023/04/30 05:34:24;;;;;;;12.00;6.77;;;11.20;1.00;;;;;;4970171;28;20209;-62
2023/04/30 05:36:51;;;;;;;9.87;5.77;;;11.70;1.00;;;;;;4970663;28;20754;-60
2023/04/30 05:39:18;;;;;;;7.50;5.77;;;11.90;1.00;;;;;;4964750;28;20218;-63
2023/04/30 05:41:45;;;;;;;6.93;4.90;;;12.20;1.00;;;;;;4970280;28;20202;-65
2023/04/30 05:44:12;;;;;;;8.55;5.00;;;13.20;1.00;;;;;;4966591;28;20218;-65
2023/04/30 05:46:39;;;;;;;8.30;4.88;;;13.90;1.00;;;;;;4969982;28;20706;-64
2023/04/30 05:49:06;;;;;;;9.65;4.38;;;15.10;1.00;;;;;;4969762;28;20598;-63
2023/04/30 05:51:33;;;;;;;9.30;4.15;;;16.70;1.00;;;;;;4970460;28;20585;-62
2023/04/30 05:54:01;;;;;;;6.78;4.10;;;16.70;1.00;;;;;;4970759;28;20256;-62
2023/04/30 05:56:28;;;;;;;6.43;4.25;;;16.60;1.00;;;;;;4970789;28;20194;-63
2023/04/30 05:58:55;;;;;;;10.40;4.38;;;16.80;1.00;;;;;;4970579;28;20290;-64
2023/04/30 06:01:24;;;;;;;6.85;4.53;;;16.20;1.00;;;;;;4970818;28;20261;-63
2023/04/30 06:03:51;;;;;;;9.55;4.63;;;15.80;1.00;;;;;;4969652;28;20230;-63
2023/04/30 06:06:20;;;;;;;8.45;4.78;;;15.60;1.00;;;;;;4965563;28;20206;-64
2023/04/30 06:08:47;;;;;;;8.07;4.32;;;16.70;1.00;;;;;;4970334;28;20285;-64
2023/04/30 06:11:14;;;;;;;8.05;4.40;;;16.70;1.00;;;;;;4949915;28;20191;-62
2023/04/30 06:13:41;;;;;;;6.95;4.10;;;17.80;1.00;;;;;;4944390;28;20199;-64
2023/04/30 06:16:08;;;;;;;6.82;5.38;;;18.70;1.00;;;;;;4970171;28;20191;-63
2023/04/30 06:18:35;;;;;;;9.52;4.75;;;16.50;1.00;;;;;;4969881;28;20234;-63
2023/04/30 06:21:02;;;;;;;8.20;5.07;;;16.60;1.00;;;;;;4970116;28;20198;-61
2023/04/30 06:23:29;;;;;;;9.20;5.43;;;16.60;1.00;;;;;;4969955;28;20641;-60
2023/04/30 06:25:56;;;;;;;6.97;5.03;;;18.10;1.00;;;;;;4949444;28;20735;-61
2023/04/30 06:28:23;;;;;;;7.45;5.18;;;18.00;1.00;;;;;;4943471;28;20194;-61
2023/04/30 06:30:51;;;;;;;8.90;5.25;;;18.60;1.00;;;;;;4969930;28;20622;-61
2023/04/30 06:33:18;;;;;;;8.73;5.05;;;18.80;1.00;;;;;;4970093;28;20213;-60
2023/04/30 06:35:45;;;;;;;11.23;4.95;;;19.00;1.00;;;;;;4958076;28;21063;-60
2023/04/30 06:38:12;;;;;;;7.63;5.10;;;20.70;1.00;;;;;;4970200;28;20190;-60
2023/04/30 06:40:40;;;;;;;4.75;4.07;;;20.50;1.00;;;;;;4968763;28;20678;-59
2023/04/30 06:43:07;;;;;;;9.10;4.70;;;20.90;1.00;;;;;;4967584;28;20253;-62
2023/04/30 06:45:34;;;;;;;8.27;4.50;;;20.90;1.00;;;;;;4952498;28;20293;-63
2023/04/30 06:48:01;;;;;;;9.43;5.15;;;20.70;1.00;;;;;;4966881;28;20198;-64
2023/04/30 06:50:28;;;;;;;8.77;6.28;;;20.50;1.00;;;;;;4960265;28;20564;-64
2023/04/30 06:52:55;;;;;;;11.30;6.22;;;20.10;1.00;;;;;;4962767;28;20229;-62
2023/04/30 06:55:23;;;;;;;10.70;6.07;;;19.50;1.00;;;;;;4965642;28;20244;-62
2023/04/30 06:57:50;;;;;;;8.40;5.88;;;20.20;1.00;;;;;;4965077;28;20301;-62
2023/04/30 07:00:17;;;;;;;9.38;5.78;;;21.20;1.00;;;;;;4968765;28;20553;-63
2023/04/30 07:02:46;;;;;;;7.38;5.53;;;23.40;1.00;;;;;;4958922;28;20300;-63
2023/04/30 07:05:15;;;;;;;8.05;5.50;;;24.10;1.00;;;;;;4967244;28;20229;-61
2023/04/30 07:07:42;;;;;;;6.25;5.50;;;25.50;1.00;;;;;;4968134;28;20198;-61
2023/04/30 07:10:09;;;;;;;12.05;6.38;;;23.90;1.00;;;;;;4968083;28;20521;-62
2023/04/30 07:12:36;;;;;;;6.65;5.93;;;20.80;1.00;;;;;;4965568;28;20194;-61
2023/04/30 07:15:04;;;;;;;7.97;5.65;;;23.10;1.00;;;;;;4952511;28;20224;-61
2023/04/30 07:17:31;;;;;;;8.15;5.47;;;24.20;1.00;;;;;;4966250;28;20699;-62
2023/04/30 07:19:58;;;;;;;6.88;5.35;;;23.60;1.00;;;;;;4969045;28;20202;-61
2023/04/30 07:22:25;;;;;;;5.78;4.60;;;23.80;1.00;;;;;;4968668;28;20198;-63
2023/04/30 07:24:52;;;;;;;9.35;5.55;;;22.50;1.00;;;;;;4968962;28;20206;-62
2023/04/30 07:27:19;;;;;;;7.00;5.75;;;21.10;1.00;;;;;;4968960;28;20273;-61
2023/04/30 07:29:46;;;;;;;8.25;5.65;;;22.70;1.00;;;;;;4969208;28;20199;-61
2023/04/30 07:32:14;;;;;;;9.23;5.88;;;23.50;1.00;;;;;;4955159;28;20667;-61
2023/04/30 07:34:41;;;;;;;6.25;4.72;;;24.40;1.00;;;;;;4967911;28;20218;-60
2023/04/30 07:37:08;;;;;;;7.18;5.07;;;27.60;1.00;;;;;;4967942;28;20309;-60
2023/04/30 07:39:38;;;;;;;7.05;5.35;;;22.50;1.00;;;;;;4968329;28;20764;-62
2023/04/30 07:42:05;;;;;;;6.53;5.28;;;20.30;1.00;;;;;;4957237;28;20737;-62
2023/04/30 07:44:32;;;;;;;6.25;5.18;;;20.90;1.00;;;;;;4974870;28;21019;-62
2023/04/30 07:46:59;;;;;;;5.90;4.63;;;22.40;1.00;;;;;;4943935;28;20378;-61
2023/04/30 07:49:27;;;;;;;7.82;4.80;;;24.40;1.00;;;;;;4958176;28;20190;-60
2023/04/30 07:51:54;;;;;;;7.15;4.60;;;24.80;1.00;;;;;;4966771;28;20571;-60
2023/04/30 07:54:21;;;;;;;8.77;5.05;;;28.10;1.00;;;;;;4970601;28;20225;-61
2023/04/30 07:56:48;;;;;;;8.18;5.30;;;25.70;1.00;;;;;;4970765;28;20236;-60
2023/04/30 07:59:16;;;;;;;8.65;5.00;;;25.80;1.00;;;;;;4971455;28;20198;-61
2023/04/30 08:01:43;;;;;;;9.45;4.60;;;24.50;1.00;;;;;;4972097;28;20338;-60
2023/04/30 08:04:11;;;;;;;5.95;4.82;;;27.30;1.00;;;;;;4972017;28;20353;-60
2023/04/30 08:06:38;;;;;;;5.75;4.20;;;28.10;1.00;;;;;;4971731;28;20341;-60
2023/04/30 08:09:05;;;;;;;10.63;5.00;;;28.60;1.00;;;;;;4965077;28;20210;-60
2023/04/30 08:11:32;;;;;;;7.70;5.00;;;29.00;1.00;;;;;;4971981;28;20187;-60
2023/04/30 08:13:59;;;;;;;6.20;4.60;;;26.90;1.00;;;;;;4960565;28;20190;-60
2023/04/30 08:16:26;;;;;;;6.38;4.70;;;27.10;1.00;;;;;;4960709;28;20203;-61
2023/04/30 08:18:53;;;;;;;8.35;4.47;;;28.80;1.00;;;;;;4971125;28;20202;-61
2023/04/30 08:21:20;;;;;;;6.60;4.40;;;28.50;1.00;;;;;;4971907;28;20241;-60
2023/04/30 08:23:48;;;;;;;6.82;4.68;;;29.30;1.00;;;;;;4959626;28;20336;-60
2023/04/30 08:26:15;;;;;;;8.02;3.80;;;28.60;1.00;;;;;;4971535;28;20203;-60
2023/04/30 08:28:42;;;;;;;6.30;4.20;;;29.30;1.00;;;;;;4968234;28;20671;-60
2023/04/30 08:31:09;;;;;;;6.03;3.70;;;28.30;1.00;;;;;;4971641;28;20545;-60
2023/04/30 08:33:36;;;;;;;7.60;4.60;;;29.70;1.00;;;;;;4971107;28;20604;-59
2023/04/30 08:36:04;;;;;;;8.57;3.60;;;28.40;1.00;;;;;;4962315;28;20198;-60
2023/04/30 08:38:31;;;;;;;4.75;3.45;;;27.20;1.00;;;;;;4971465;28;20198;-60
2023/04/30 08:41:10;;;;;;;5.15;3.40;;;28.90;1.00;;;;;;4971271;28;20190;-60
2023/04/30 08:43:38;;;;;;;6.63;3.95;;;28.20;1.00;;;;;;4969545;28;20192;-60
2023/04/30 08:46:06;;;;;;;6.03;3.78;;;27.10;1.00;;;;;;4971645;28;20202;-60
2023/04/30 08:48:33;;;;;;;5.68;3.38;;;27.90;1.00;;;;;;4958630;28;20617;-60
2023/04/30 08:51:01;;;;;;;6.15;3.70;;;27.40;1.00;;;;;;4955483;28;20322;-60
2023/04/30 08:53:30;;;;;;;5.82;3.67;;;26.70;1.00;;;;;;4971322;28;20205;-59
2023/04/30 08:55:57;;;;;;;6.32;3.75;;;27.50;1.00;;;;;;4963137;28;20658;-61
2023/04/30 08:58:24;;;;;;;6.60;3.92;;;28.90;1.00;;;;;;4951197;28;20273;-61
2023/04/30 09:00:51;;;;;;;7.72;4.22;;;27.30;1.00;;;;;;4969490;28;20187;-61
2023/04/30 09:03:20;;;;;;;7.60;3.95;;;27.40;1.00;;;;;;4969610;28;20581;-61
2023/04/30 09:05:48;;;;;;;7.72;4.10;;;26.50;1.00;;;;;;4966836;28;20586;-60
2023/04/30 09:08:19;;;;;;;7.47;4.00;;;26.90;1.00;;;;;;4970553;28;20608;-60
2023/04/30 09:10:46;;;;;;;6.35;3.70;;;29.30;1.00;;;;;;4970890;28;20198;-61
2023/04/30 09:13:13;;;;;;;5.57;3.33;;;31.60;1.00;;;;;;4962778;28;20909;-62
2023/04/30 09:15:40;;;;;;;6.60;3.70;;;34.70;1.00;;;;;;4970066;28;20229;-60
2023/04/30 09:18:13;;;;;;;7.53;4.30;;;31.10;1.00;;;;;;4974884;28;20197;-61
2023/04/30 09:21:03;;;;;;;5.78;3.08;;;31.00;1.00;;;;;;4970750;28;20289;-61
2023/04/30 09:23:30;;;;;;;4.70;3.60;;;32.20;1.00;;;;;;4952478;28;20198;-63
2023/04/30 09:25:57;;;;;;;6.63;3.92;;;32.50;1.00;;;;;;4970275;28;20222;-61
2023/04/30 09:28:26;;;;;;;8.05;3.80;;;31.40;1.00;;;;;;4970407;28;20205;-60
2023/04/30 09:30:56;;;;;;;7.82;3.92;;;30.30;1.00;;;;;;4969776;28;20281;-60
2023/04/30 09:33:24;;;;;;;8.10;3.78;;;30.30;1.00;;;;;;4952802;28;20206;-61
2023/04/30 09:35:51;;;;;;;8.95;3.67;;;29.90;1.00;;;;;;4964974;28;20957;-60
2023/04/30 09:38:31;;;;;;;4.75;3.50;;;28.70;1.00;;;;;;4970498;28;20195;-60
2023/04/30 09:41:00;;;;;;;6.57;4.20;;;29.10;1.00;;;;;;4968470;28;20217;-60
2023/04/30 09:43:28;;;;;;;3.90;2.72;;;28.60;1.00;;;;;;4962869;28;20281;-60
2023/04/30 09:45:58;;;;;;;4.35;2.85;;;29.50;1.00;;;;;;4969261;28;20693;-60
2023/04/30 09:48:29;;;;;;;3.00;2.53;;;28.80;1.00;;;;;;4968673;28;20194;-60
2023/04/30 09:50:56;;;;;;;3.78;2.67;;;28.30;1.00;;;;;;4969516;28;20313;-60
2023/04/30 09:53:23;;;;;;;5.68;3.95;;;29.10;1.00;;;;;;4969512;28;20194;-59
2023/04/30 09:55:51;;;;;;;5.22;3.63;;;28.30;1.00;;;;;;4967699;28;20709;-60
2023/04/30 09:58:19;;;;;;;6.90;3.60;;;28.80;1.00;;;;;;4965630;28;20242;-59
2023/04/30 10:00:48;;;;;;;8.00;4.13;;;28.80;1.00;;;;;;4966013;28;20817;-60
2023/04/30 10:03:16;;;;;;;5.43;4.00;;;27.40;1.00;;;;;;4964677;28;20186;-61
2023/04/30 10:05:48;;;;;;;6.22;4.45;;;26.60;1.00;;;;;;4968536;28;20233;-60
2023/04/30 10:08:39;;;;;;;5.50;3.85;;;24.80;1.00;;;;;;4967529;28;20194;-62
2023/04/30 10:11:07;;;;;;;4.28;3.88;;;24.30;1.00;;;;;;4968236;28;20194;-61
2023/04/30 10:13:42;;;;;;;4.80;3.63;;;24.40;1.00;;;;;;4968410;28;20193;-61
2023/04/30 10:16:53;;;;;;;4.05;2.92;;;26.30;1.00;;;;;;4969451;28;20280;-59
2023/04/30 10:19:25;;;;;;;3.78;3.10;;;27.60;1.00;;;;;;4966952;28;20193;-61
2023/04/30 10:21:52;;;;;;;5.13;3.15;;;26.00;1.00;;;;;;4969017;28;20186;-61
2023/04/30 10:24:20;;;;;;;4.50;3.47;;;25.30;1.00;;;;;;4968575;28;20638;-60
2023/04/30 10:26:48;;;;;;;6.28;3.45;;;25.80;1.00;;;;;;4973408;28;20232;-61
2023/04/30 10:29:17;;;;;;;5.53;3.40;;;24.00;1.00;;;;;;4967516;28;20214;-62
2023/04/30 10:31:49;;;;;;;5.30;3.10;;;22.90;1.00;;;;;;4951499;28;20253;-62
2023/04/30 10:34:37;;;;;;;3.92;2.85;;;24.20;1.00;;;;;;4949865;28;20214;-62
2023/04/30 10:37:19;;;;;;;3.30;2.92;;;24.00;1.00;;;;;;4949650;28;20202;-63
2023/04/30 10:39:46;;;;;;;7.32;5.60;;;23.40;1.00;;;;;;4968136;28;20226;-62
2023/04/30 10:42:13;;;;;;;4.65;3.38;;;23.60;1.00;;;;;;4950367;28;20198;-62
2023/04/30 10:44:40;;;;;;;4.15;2.97;;;22.70;1.00;;;;;;4967754;28;20281;-61
2023/04/30 10:47:08;;;;;;;7.50;3.22;;;22.90;1.00;;;;;;4961616;28;20198;-62
2023/04/30 10:49:35;;;;;;;4.50;3.78;;;23.40;1.00;;;;;;4966265;28;20218;-62
2023/04/30 10:52:04;;;;;;;7.47;4.03;;;23.70;1.00;;;;;;4954302;28;20222;-59
2023/04/30 10:54:33;;;;;;;4.07;2.80;;;26.30;1.00;;;;;;4968608;28;20303;-60
2023/04/30 10:57:10;;;;;;;6.40;3.33;;;25.70;1.00;;;;;;4962391;28;20658;-60
2023/04/30 10:59:41;;;;;;;7.45;3.40;;;24.30;1.00;;;;;;4966786;28;20214;-62
2023/04/30 11:02:10;;;;;;;19.02;13.50;;;23.40;1.00;;;;;;4965928;28;20420;-60
2023/04/30 11:05:22;;;;;;;7.32;3.55;;;23.00;1.00;;;;;;4968112;28;20326;-60
2023/04/30 11:07:57;;;;;;;5.72;3.00;;;23.50;1.00;;;;;;4936658;28;20576;-61
2023/04/30 11:10:27;;;;;;;5.97;3.55;;;23.90;1.00;;;;;;4949550;28;20213;-60
2023/04/30 11:12:54;;;;;;;4.65;2.90;;;23.50;1.00;;;;;;4949208;28;20225;-61
2023/04/30 11:15:30;;;;;;;7.10;3.30;;;24.60;1.00;;;;;;4963234;28;20614;-59
2023/04/30 11:17:58;;;;;;;6.32;3.30;;;25.00;1.00;;;;;;4965936;28;20196;-60
2023/04/30 11:20:26;;;;;;;6.32;3.47;;;24.50;1.00;;;;;;4972007;28;20552;-60
2023/04/30 11:23:11;;;;;;;6.05;3.33;;;24.80;1.00;;;;;;4953695;28;20570;-60
2023/04/30 11:25:40;;;;;;;4.07;2.92;;;24.10;1.00;;;;;;4951734;28;20202;-61
2023/04/30 11:28:34;;;;;;;4.65;3.05;;;24.30;1.00;;;;;;4954572;28;20206;-61
2023/04/30 11:31:02;;;;;;;5.80;3.10;;;24.00;1.00;;;;;;4966878;28;20210;-61
2023/04/30 11:33:31;;;;;;;3.72;2.83;;;23.90;1.00;;;;;;4968131;28;20198;-62
2023/04/30 11:35:59;;;;;;;3.67;3.00;;;24.40;1.00;;;;;;4958605;28;20221;-61
2023/04/30 11:38:34;;;;;;;5.60;2.70;;;22.80;1.00;;;;;;4970973;28;20647;-61
2023/04/30 11:41:02;;;;;;;4.82;3.28;;;21.90;1.00;;;;;;4971932;28;20198;-60
2023/04/30 11:43:31;;;;;;;5.75;3.38;;;21.60;1.00;;;;;;4938315;28;20862;-61
2023/04/30 11:46:16;;;;;;;5.30;2.83;;;21.40;1.00;;;;;;4969734;28;20670;-62
2023/04/30 11:48:45;;;;;;;5.10;3.03;;;21.10;1.00;;;;;;4969201;28;20964;-63
2023/04/30 11:51:20;;;;;;;4.20;2.83;;;21.30;1.00;;;;;;4967546;28;20214;-62
2023/04/30 11:53:49;;;;;;;4.30;2.83;;;22.10;1.00;;;;;;4946603;28;20348;-62
2023/04/30 11:56:20;;;;;;;4.60;2.75;;;22.00;1.00;;;;;;4932094;29;20326;-62
2023/04/30 11:58:48;;;;;;;3.58;2.50;;;22.60;1.00;;;;;;4937764;28;20260;-61
2023/04/30 12:01:16;;;;;;;4.57;2.75;;;21.70;1.00;;;;;;4969902;28;20285;-62
2023/04/30 12:03:46;;;;;;;3.78;3.15;;;20.90;1.00;;;;;;4945053;28;20223;-62
2023/04/30 12:06:27;;;;;;;4.80;2.58;;;22.10;1.00;;;;;;4971653;28;20221;-61
2023/04/30 12:08:57;;;;;;;8.32;3.20;;;21.50;1.00;;;;;;4966067;28;20194;-62
2023/04/30 12:11:26;;;;;;;3.28;2.20;;;21.00;1.00;;;;;;4971705;28;20198;-62
2023/04/30 12:13:55;;;;;;;3.80;2.97;;;21.20;1.00;;;;;;4968645;28;20632;-62
2023/04/30 12:16:24;;;;;;;5.97;3.35;;;21.50;1.00;;;;;;4969236;28;20214;-61
2023/04/30 12:18:51;;;;;;;7.95;3.35;;;20.40;1.00;;;;;;4969139;28;20191;-63
2023/04/30 12:21:21;;;;;;;5.72;3.30;;;20.40;1.00;;;;;;4972022;28;20194;-65
2023/04/30 12:23:49;;;;;;;4.75;3.20;;;20.40;1.00;;;;;;4971810;28;20182;-62
2023/04/30 12:26:16;;;;;;;6.00;3.60;;;20.10;1.00;;;;;;4954581;28;20194;-60
2023/04/30 12:28:47;;;;;;;7.78;3.33;;;20.80;1.00;;;;;;4971730;28;20207;-64
2023/04/30 12:31:16;;;;;;;7.50;3.45;;;21.60;1.00;;;;;;4970515;28;20229;-62
2023/04/30 12:33:52;;;;;;;4.78;2.90;;;20.80;1.00;;;;;;4969534;28;20222;-61
2023/04/30 12:36:19;;;;;;;6.40;3.28;;;20.40;1.00;;;;;;4967322;28;20285;-61
2023/04/30 12:38:46;;;;;;;6.53;3.05;;;20.10;1.00;;;;;;4970081;28;20682;-61
2023/04/30 12:41:14;;;;;;;4.72;3.20;;;20.30;1.00;;;;;;4950633;28;20284;-61
2023/04/30 12:43:41;;;;;;;6.75;3.38;;;19.60;1.00;;;;;;4970188;28;20201;-64
2023/04/30 12:46:08;;;;;;;6.13;3.30;;;19.30;1.00;;;;;;4956896;28;20206;-62
2023/04/30 12:48:44;;;;;;;6.65;3.33;;;19.40;1.00;;;;;;4953036;28;20224;-61
2023/04/30 12:51:11;;;;;;;7.22;3.42;;;19.10;1.00;;;;;;4963198;28;20214;-61
2023/04/30 12:53:45;;;;;;;8.55;4.13;;;19.50;1.00;;;;;;4956139;28;20202;-63
2023/04/30 12:56:15;;;;;;;7.22;3.25;;;19.70;1.00;;;;;;4952490;28;20222;-61
2023/04/30 12:58:48;;;;;;;6.70;3.50;;;19.20;1.00;;;;;;4968429;28;20187;-63
2023/04/30 13:01:24;;;;;;;6.45;3.28;;;19.00;1.00;;;;;;4968231;28;20531;-62
2023/04/30 13:03:52;;;;;;;4.57;2.78;;;19.00;1.00;;;;;;4950038;28;20253;-61
2023/04/30 13:06:23;;;;;;;4.18;3.00;;;18.90;1.00;;;;;;4970898;28;20221;-65